sensor_id;sensor_type;location;lat;lon;timestamp;P1;durP1;ratioP1;P2;durP2;ratioP2
3259;SDS011;22469;48.150;14.004;2022-10-31T00:03:49;44.50;;;20.33;;
3259;SDS011;22469;48.150;14.004;2022-10-31T00:06:16;30.07;;;18.73;;
3259;SDS011;22469;48.150;14.004;2022-10-31T00:08:51;23.00;;;17.40;;
3259;SDS011;22469;48.150;14.004;2022-10-31T00:11:30;22.33;;;17.30;;
3259;SDS011;22469;48.150;14.004;2022-10-31T00:13:57;26.57;;;17.90;;
3259;SDS011;22469;48.150;14.004;2022-10-31T00:16:26;28.60;;;17.20;;
3259;SDS011;22469;48.150;14.004;2022-10-31T00:18:55;27.87;;;19.57;;
3259;SDS011;22469;48.150;14.004;2022-10-31T00:21:25;21.67;;;17.60;;
3259;SDS011;22469;48.150;14.004;2022-10-31T00:23:53;25.93;;;19.97;;
3259;SDS011;22469;48.150;14.004;2022-10-31T00:26:20;28.20;;;18.43;;
3259;SDS011;22469;48.150;14.004;2022-10-31T00:28:48;28.70;;;18.27;;
3259;SDS011;22469;48.150;14.004;2022-10-31T00:31:15;25.93;;;18.73;;
3259;SDS011;22469;48.150;14.004;2022-10-31T00:33:43;28.40;;;19.60;;
3259;SDS011;22469;48.150;14.004;2022-10-31T00:36:14;44.60;;;22.10;;
3259;SDS011;22469;48.150;14.004;2022-10-31T00:38:45;41.23;;;22.77;;
3259;SDS011;22469;48.150;14.004;2022-10-31T00:41:14;49.03;;;24.70;;
3259;SDS011;22469;48.150;14.004;2022-10-31T00:43:43;36.20;;;23.63;;
3259;SDS011;22469;48.150;14.004;2022-10-31T00:46:11;41.67;;;22.63;;
3259;SDS011;22469;48.150;14.004;2022-10-31T00:48:39;59.60;;;25.70;;
3259;SDS011;22469;48.150;14.004;2022-10-31T00:51:06;49.63;;;26.17;;
3259;SDS011;22469;48.150;14.004;2022-10-31T00:53:34;45.57;;;25.47;;
3259;SDS011;22469;48.150;14.004;2022-10-31T00:56:01;56.37;;;27.83;;
3259;SDS011;22469;48.150;14.004;2022-10-31T00:58:29;52.93;;;25.83;;
3259;SDS011;22469;48.150;14.004;2022-10-31T01:00:56;46.63;;;24.80;;
3259;SDS011;22469;48.150;14.004;2022-10-31T01:03:25;47.87;;;25.20;;
3259;SDS011;22469;48.150;14.004;2022-10-31T01:08:35;62.70;;;27.37;;
3259;SDS011;22469;48.150;14.004;2022-10-31T01:11:05;78.87;;;26.07;;
3259;SDS011;22469;48.150;14.004;2022-10-31T01:13:34;53.67;;;28.40;;
3259;SDS011;22469;48.150;14.004;2022-10-31T01:16:02;63.80;;;29.20;;
3259;SDS011;22469;48.150;14.004;2022-10-31T01:18:32;48.50;;;27.70;;
3259;SDS011;22469;48.150;14.004;2022-10-31T01:21:07;50.90;;;29.23;;
3259;SDS011;22469;48.150;14.004;2022-10-31T01:23:38;77.87;;;32.10;;
3259;SDS011;22469;48.150;14.004;2022-10-31T01:28:45;42.13;;;27.57;;
3259;SDS011;22469;48.150;14.004;2022-10-31T01:31:17;52.20;;;27.87;;
3259;SDS011;22469;48.150;14.004;2022-10-31T01:33:47;45.67;;;28.17;;
3259;SDS011;22469;48.150;14.004;2022-10-31T01:36:22;45.00;;;25.87;;
3259;SDS011;22469;48.150;14.004;2022-10-31T01:38:59;58.23;;;27.37;;
3259;SDS011;22469;48.150;14.004;2022-10-31T01:41:33;41.47;;;27.83;;
3259;SDS011;22469;48.150;14.004;2022-10-31T01:49:18;38.80;;;25.87;;
3259;SDS011;22469;48.150;14.004;2022-10-31T01:51:52;41.20;;;28.47;;
3259;SDS011;22469;48.150;14.004;2022-10-31T01:54:26;39.47;;;28.03;;
3259;SDS011;22469;48.150;14.004;2022-10-31T01:57:00;38.30;;;26.30;;
3259;SDS011;22469;48.150;14.004;2022-10-31T01:59:32;39.90;;;26.00;;
3259;SDS011;22469;48.150;14.004;2022-10-31T02:02:06;42.50;;;27.03;;
3259;SDS011;22469;48.150;14.004;2022-10-31T02:04:34;37.07;;;25.43;;
3259;SDS011;22469;48.150;14.004;2022-10-31T02:07:02;39.10;;;25.70;;
3259;SDS011;22469;48.150;14.004;2022-10-31T02:09:36;34.50;;;25.47;;
3259;SDS011;22469;48.150;14.004;2022-10-31T02:12:04;38.73;;;25.50;;
3259;SDS011;22469;48.150;14.004;2022-10-31T02:14:33;30.63;;;24.67;;
3259;SDS011;22469;48.150;14.004;2022-10-31T02:17:01;32.27;;;25.07;;
3259;SDS011;22469;48.150;14.004;2022-10-31T02:19:39;37.87;;;24.63;;
3259;SDS011;22469;48.150;14.004;2022-10-31T02:36:52;50.73;;;23.90;;
3259;SDS011;22469;48.150;14.004;2022-10-31T02:39:36;46.63;;;22.60;;
3259;SDS011;22469;48.150;14.004;2022-10-31T02:42:28;69.50;;;24.13;;
3259;SDS011;22469;48.150;14.004;2022-10-31T02:47:55;38.43;;;21.80;;
3259;SDS011;22469;48.150;14.004;2022-10-31T02:50:30;33.53;;;22.00;;
3259;SDS011;22469;48.150;14.004;2022-10-31T02:53:02;37.97;;;22.70;;
3259;SDS011;22469;48.150;14.004;2022-10-31T02:57:57;44.07;;;23.50;;
3259;SDS011;22469;48.150;14.004;2022-10-31T03:00:33;32.17;;;21.50;;
3259;SDS011;22469;48.150;14.004;2022-10-31T03:03:25;56.93;;;24.07;;
3259;SDS011;22469;48.150;14.004;2022-10-31T03:06:51;34.67;;;21.70;;
3259;SDS011;22469;48.150;14.004;2022-10-31T03:12:45;54.80;;;22.50;;
3259;SDS011;22469;48.150;14.004;2022-10-31T03:15:27;32.70;;;22.57;;
3259;SDS011;22469;48.150;14.004;2022-10-31T03:18:04;57.73;;;26.57;;
3259;SDS011;22469;48.150;14.004;2022-10-31T03:20:38;42.13;;;22.73;;
3259;SDS011;22469;48.150;14.004;2022-10-31T03:23:10;41.33;;;24.83;;
3259;SDS011;22469;48.150;14.004;2022-10-31T03:25:41;44.23;;;24.20;;
3259;SDS011;22469;48.150;14.004;2022-10-31T03:28:11;41.47;;;23.40;;
3259;SDS011;22469;48.150;14.004;2022-10-31T03:30:42;35.87;;;22.87;;
3259;SDS011;22469;48.150;14.004;2022-10-31T03:33:13;28.97;;;23.07;;
3259;SDS011;22469;48.150;14.004;2022-10-31T03:35:45;38.40;;;23.10;;
3259;SDS011;22469;48.150;14.004;2022-10-31T03:38:14;26.13;;;20.80;;
3259;SDS011;22469;48.150;14.004;2022-10-31T03:40:43;35.50;;;22.17;;
3259;SDS011;22469;48.150;14.004;2022-10-31T03:43:14;33.60;;;20.87;;
3259;SDS011;22469;48.150;14.004;2022-10-31T03:45:47;33.33;;;21.10;;
3259;SDS011;22469;48.150;14.004;2022-10-31T03:48:15;31.97;;;21.53;;
3259;SDS011;22469;48.150;14.004;2022-10-31T03:53:26;23.77;;;20.80;;
3259;SDS011;22469;48.150;14.004;2022-10-31T03:56:36;30.23;;;20.20;;
3259;SDS011;22469;48.150;14.004;2022-10-31T04:01:45;30.93;;;20.33;;
3259;SDS011;22469;48.150;14.004;2022-10-31T04:04:19;49.33;;;22.07;;
3259;SDS011;22469;48.150;14.004;2022-10-31T04:06:46;45.70;;;23.30;;
3259;SDS011;22469;48.150;14.004;2022-10-31T04:09:15;41.73;;;23.37;;
3259;SDS011;22469;48.150;14.004;2022-10-31T04:11:48;36.63;;;22.07;;
3259;SDS011;22469;48.150;14.004;2022-10-31T04:14:20;43.27;;;23.00;;
3259;SDS011;22469;48.150;14.004;2022-10-31T04:16:52;40.33;;;24.53;;
3259;SDS011;22469;48.150;14.004;2022-10-31T04:19:19;28.57;;;22.60;;
3259;SDS011;22469;48.150;14.004;2022-10-31T04:21:46;50.20;;;23.47;;
3259;SDS011;22469;48.150;14.004;2022-10-31T04:24:13;61.67;;;22.70;;
3259;SDS011;22469;48.150;14.004;2022-10-31T04:26:40;36.43;;;23.40;;
3259;SDS011;22469;48.150;14.004;2022-10-31T04:29:07;31.27;;;23.53;;
3259;SDS011;22469;48.150;14.004;2022-10-31T04:31:34;26.90;;;21.70;;
3259;SDS011;22469;48.150;14.004;2022-10-31T04:34:01;38.90;;;22.70;;
3259;SDS011;22469;48.150;14.004;2022-10-31T04:36:28;38.73;;;22.50;;
3259;SDS011;22469;48.150;14.004;2022-10-31T04:38:55;35.80;;;22.13;;
3259;SDS011;22469;48.150;14.004;2022-10-31T04:41:22;33.27;;;22.97;;
3259;SDS011;22469;48.150;14.004;2022-10-31T04:43:49;40.77;;;21.97;;
3259;SDS011;22469;48.150;14.004;2022-10-31T04:46:16;29.30;;;21.67;;
3259;SDS011;22469;48.150;14.004;2022-10-31T04:48:43;29.57;;;20.83;;
3259;SDS011;22469;48.150;14.004;2022-10-31T04:51:10;28.97;;;22.87;;
3259;SDS011;22469;48.150;14.004;2022-10-31T04:53:38;41.77;;;21.63;;
3259;SDS011;22469;48.150;14.004;2022-10-31T04:56:05;33.00;;;22.17;;
3259;SDS011;22469;48.150;14.004;2022-10-31T04:58:32;28.17;;;21.30;;
3259;SDS011;22469;48.150;14.004;2022-10-31T05:00:59;35.73;;;22.60;;
3259;SDS011;22469;48.150;14.004;2022-10-31T05:03:26;29.03;;;21.50;;
3259;SDS011;22469;48.150;14.004;2022-10-31T05:05:53;43.70;;;22.37;;
3259;SDS011;22469;48.150;14.004;2022-10-31T05:08:20;26.03;;;20.23;;
3259;SDS011;22469;48.150;14.004;2022-10-31T05:10:47;19.60;;;17.50;;
3259;SDS011;22469;48.150;14.004;2022-10-31T05:13:14;27.07;;;17.97;;
3259;SDS011;22469;48.150;14.004;2022-10-31T05:15:42;27.70;;;18.80;;
3259;SDS011;22469;48.150;14.004;2022-10-31T05:18:09;27.30;;;18.50;;
3259;SDS011;22469;48.150;14.004;2022-10-31T05:20:36;36.97;;;20.03;;
3259;SDS011;22469;48.150;14.004;2022-10-31T05:23:03;31.40;;;19.30;;
3259;SDS011;22469;48.150;14.004;2022-10-31T05:25:30;25.17;;;19.13;;
3259;SDS011;22469;48.150;14.004;2022-10-31T05:27:57;29.30;;;19.20;;
3259;SDS011;22469;48.150;14.004;2022-10-31T05:30:26;30.43;;;20.30;;
3259;SDS011;22469;48.150;14.004;2022-10-31T05:32:57;31.67;;;19.87;;
3259;SDS011;22469;48.150;14.004;2022-10-31T05:35:25;40.43;;;19.93;;
3259;SDS011;22469;48.150;14.004;2022-10-31T05:37:58;46.80;;;22.13;;
3259;SDS011;22469;48.150;14.004;2022-10-31T05:40:26;25.43;;;17.50;;
3259;SDS011;22469;48.150;14.004;2022-10-31T05:42:55;37.07;;;18.07;;
3259;SDS011;22469;48.150;14.004;2022-10-31T05:45:25;22.63;;;15.97;;
3259;SDS011;22469;48.150;14.004;2022-10-31T05:47:56;40.17;;;18.63;;
3259;SDS011;22469;48.150;14.004;2022-10-31T05:50:28;31.13;;;17.80;;
3259;SDS011;22469;48.150;14.004;2022-10-31T05:52:59;26.10;;;16.70;;
3259;SDS011;22469;48.150;14.004;2022-10-31T05:55:29;27.67;;;17.50;;
3259;SDS011;22469;48.150;14.004;2022-10-31T05:57:57;27.37;;;17.33;;
3259;SDS011;22469;48.150;14.004;2022-10-31T06:00:25;23.47;;;17.67;;
3259;SDS011;22469;48.150;14.004;2022-10-31T06:03:00;23.73;;;16.20;;
3259;SDS011;22469;48.150;14.004;2022-10-31T06:05:30;20.43;;;16.03;;
3259;SDS011;22469;48.150;14.004;2022-10-31T06:07:57;27.90;;;17.03;;
3259;SDS011;22469;48.150;14.004;2022-10-31T06:10:26;23.63;;;14.20;;
3259;SDS011;22469;48.150;14.004;2022-10-31T06:12:54;22.07;;;15.60;;
3259;SDS011;22469;48.150;14.004;2022-10-31T06:15:21;22.77;;;16.57;;
3259;SDS011;22469;48.150;14.004;2022-10-31T06:17:57;22.37;;;16.83;;
3259;SDS011;22469;48.150;14.004;2022-10-31T06:20:29;31.20;;;16.13;;
3259;SDS011;22469;48.150;14.004;2022-10-31T06:22:57;36.80;;;16.57;;
3259;SDS011;22469;48.150;14.004;2022-10-31T06:25:25;30.20;;;18.47;;
3259;SDS011;22469;48.150;14.004;2022-10-31T06:27:52;26.50;;;16.50;;
3259;SDS011;22469;48.150;14.004;2022-10-31T06:30:20;16.43;;;14.40;;
3259;SDS011;22469;48.150;14.004;2022-10-31T06:32:47;20.70;;;15.80;;
3259;SDS011;22469;48.150;14.004;2022-10-31T06:35:15;28.50;;;14.87;;
3259;SDS011;22469;48.150;14.004;2022-10-31T06:37:50;28.00;;;17.07;;
3259;SDS011;22469;48.150;14.004;2022-10-31T06:40:19;32.63;;;16.70;;
3259;SDS011;22469;48.150;14.004;2022-10-31T06:42:46;26.37;;;16.47;;
3259;SDS011;22469;48.150;14.004;2022-10-31T06:45:13;27.00;;;16.73;;
3259;SDS011;22469;48.150;14.004;2022-10-31T06:47:40;24.53;;;14.73;;
3259;SDS011;22469;48.150;14.004;2022-10-31T06:50:27;17.23;;;15.23;;
3259;SDS011;22469;48.150;14.004;2022-10-31T06:52:54;20.03;;;16.93;;
3259;SDS011;22469;48.150;14.004;2022-10-31T06:55:23;23.10;;;15.13;;
3259;SDS011;22469;48.150;14.004;2022-10-31T06:57:52;31.73;;;16.07;;
3259;SDS011;22469;48.150;14.004;2022-10-31T07:00:27;16.40;;;14.70;;
3259;SDS011;22469;48.150;14.004;2022-10-31T07:03:03;17.80;;;14.27;;
3259;SDS011;22469;48.150;14.004;2022-10-31T07:05:33;21.43;;;16.40;;
3259;SDS011;22469;48.150;14.004;2022-10-31T07:08:03;16.80;;;15.07;;
3259;SDS011;22469;48.150;14.004;2022-10-31T07:10:34;30.13;;;18.00;;
3259;SDS011;22469;48.150;14.004;2022-10-31T07:13:06;27.63;;;16.90;;
3259;SDS011;22469;48.150;14.004;2022-10-31T07:15:39;28.40;;;17.00;;
3259;SDS011;22469;48.150;14.004;2022-10-31T07:18:09;27.50;;;17.27;;
3259;SDS011;22469;48.150;14.004;2022-10-31T07:20:38;23.20;;;16.80;;
3259;SDS011;22469;48.150;14.004;2022-10-31T07:23:05;25.33;;;17.20;;
3259;SDS011;22469;48.150;14.004;2022-10-31T07:25:34;22.27;;;17.07;;
3259;SDS011;22469;48.150;14.004;2022-10-31T07:28:01;21.27;;;16.37;;
3259;SDS011;22469;48.150;14.004;2022-10-31T07:30:28;31.13;;;16.97;;
3259;SDS011;22469;48.150;14.004;2022-10-31T07:32:55;17.87;;;15.87;;
3259;SDS011;22469;48.150;14.004;2022-10-31T07:35:23;23.70;;;16.60;;
3259;SDS011;22469;48.150;14.004;2022-10-31T07:37:53;30.73;;;17.97;;
3259;SDS011;22469;48.150;14.004;2022-10-31T07:40:21;25.50;;;17.90;;
3259;SDS011;22469;48.150;14.004;2022-10-31T07:42:50;37.40;;;17.33;;
3259;SDS011;22469;48.150;14.004;2022-10-31T07:45:19;22.87;;;17.90;;
3259;SDS011;22469;48.150;14.004;2022-10-31T07:47:48;32.87;;;17.00;;
3259;SDS011;22469;48.150;14.004;2022-10-31T07:50:21;27.23;;;17.00;;
3259;SDS011;22469;48.150;14.004;2022-10-31T07:53:01;24.87;;;16.30;;
3259;SDS011;22469;48.150;14.004;2022-10-31T07:55:29;40.50;;;18.40;;
3259;SDS011;22469;48.150;14.004;2022-10-31T07:58:30;30.47;;;18.30;;
3259;SDS011;22469;48.150;14.004;2022-10-31T08:00:51;36.50;;;16.83;;
3259;SDS011;22469;48.150;14.004;2022-10-31T08:03:19;33.03;;;16.37;;
3259;SDS011;22469;48.150;14.004;2022-10-31T08:05:46;31.10;;;16.30;;
3259;SDS011;22469;48.150;14.004;2022-10-31T08:08:14;27.73;;;14.73;;
3259;SDS011;22469;48.150;14.004;2022-10-31T08:10:42;21.03;;;14.47;;
3259;SDS011;22469;48.150;14.004;2022-10-31T08:13:10;42.00;;;17.50;;
3259;SDS011;22469;48.150;14.004;2022-10-31T08:15:40;40.00;;;17.70;;
3259;SDS011;22469;48.150;14.004;2022-10-31T08:18:12;43.97;;;15.33;;
3259;SDS011;22469;48.150;14.004;2022-10-31T08:20:43;25.10;;;16.37;;
3259;SDS011;22469;48.150;14.004;2022-10-31T08:23:11;23.13;;;15.20;;
3259;SDS011;22469;48.150;14.004;2022-10-31T08:25:39;29.70;;;14.00;;
3259;SDS011;22469;48.150;14.004;2022-10-31T08:28:08;20.20;;;14.87;;
3259;SDS011;22469;48.150;14.004;2022-10-31T08:30:37;22.47;;;13.80;;
3259;SDS011;22469;48.150;14.004;2022-10-31T08:35:42;37.87;;;14.17;;
3259;SDS011;22469;48.150;14.004;2022-10-31T08:38:10;45.43;;;15.93;;
3259;SDS011;22469;48.150;14.004;2022-10-31T08:40:39;31.53;;;14.40;;
3259;SDS011;22469;48.150;14.004;2022-10-31T08:43:10;25.10;;;15.70;;
3259;SDS011;22469;48.150;14.004;2022-10-31T08:45:39;21.53;;;13.17;;
3259;SDS011;22469;48.150;14.004;2022-10-31T08:48:08;25.80;;;13.67;;
3259;SDS011;22469;48.150;14.004;2022-10-31T08:50:41;21.00;;;13.17;;
3259;SDS011;22469;48.150;14.004;2022-10-31T08:53:18;22.80;;;13.57;;
3259;SDS011;22469;48.150;14.004;2022-10-31T08:55:46;14.70;;;12.00;;
3259;SDS011;22469;48.150;14.004;2022-10-31T08:58:14;17.70;;;12.00;;
3259;SDS011;22469;48.150;14.004;2022-10-31T09:00:44;13.40;;;11.97;;
3259;SDS011;22469;48.150;14.004;2022-10-31T09:03:21;31.83;;;12.93;;
3259;SDS011;22469;48.150;14.004;2022-10-31T09:05:49;17.33;;;13.77;;
3259;SDS011;22469;48.150;14.004;2022-10-31T09:08:17;17.37;;;12.87;;
3259;SDS011;22469;48.150;14.004;2022-10-31T09:10:44;17.03;;;13.30;;
3259;SDS011;22469;48.150;14.004;2022-10-31T09:13:13;18.57;;;14.47;;
3259;SDS011;22469;48.150;14.004;2022-10-31T09:15:47;23.83;;;14.30;;
3259;SDS011;22469;48.150;14.004;2022-10-31T09:18:17;16.87;;;15.30;;
3259;SDS011;22469;48.150;14.004;2022-10-31T09:20:49;13.87;;;12.03;;
3259;SDS011;22469;48.150;14.004;2022-10-31T09:23:17;17.47;;;13.60;;
3259;SDS011;22469;48.150;14.004;2022-10-31T09:25:47;18.03;;;15.70;;
3259;SDS011;22469;48.150;14.004;2022-10-31T09:28:18;18.47;;;16.70;;
3259;SDS011;22469;48.150;14.004;2022-10-31T09:30:50;17.03;;;15.53;;
3259;SDS011;22469;48.150;14.004;2022-10-31T09:33:18;16.70;;;15.17;;
3259;SDS011;22469;48.150;14.004;2022-10-31T09:35:47;19.80;;;17.70;;
3259;SDS011;22469;48.150;14.004;2022-10-31T09:38:15;18.43;;;16.53;;
3259;SDS011;22469;48.150;14.004;2022-10-31T09:40:46;20.73;;;14.87;;
3259;SDS011;22469;48.150;14.004;2022-10-31T09:46:34;18.13;;;16.27;;
3259;SDS011;22469;48.150;14.004;2022-10-31T09:52:28;17.40;;;15.70;;
3259;SDS011;22469;48.150;14.004;2022-10-31T09:57:33;21.23;;;17.23;;
3259;SDS011;22469;48.150;14.004;2022-10-31T10:00:06;19.20;;;17.30;;
3259;SDS011;22469;48.150;14.004;2022-10-31T10:02:59;22.40;;;17.20;;
3259;SDS011;22469;48.150;14.004;2022-10-31T10:05:38;17.27;;;15.67;;
3259;SDS011;22469;48.150;14.004;2022-10-31T10:08:15;18.00;;;16.20;;
3259;SDS011;22469;48.150;14.004;2022-10-31T10:19:34;20.30;;;18.20;;
3259;SDS011;22469;48.150;14.004;2022-10-31T10:22:55;17.97;;;16.27;;
3259;SDS011;22469;48.150;14.004;2022-10-31T10:25:47;19.83;;;17.77;;
3259;SDS011;22469;48.150;14.004;2022-10-31T10:28:31;22.47;;;20.30;;
3259;SDS011;22469;48.150;14.004;2022-10-31T10:31:09;19.93;;;17.17;;
3259;SDS011;22469;48.150;14.004;2022-10-31T10:33:46;21.43;;;19.13;;
3259;SDS011;22469;48.150;14.004;2022-10-31T10:42:14;23.60;;;20.83;;
3259;SDS011;22469;48.150;14.004;2022-10-31T10:45:06;25.60;;;19.70;;
3259;SDS011;22469;48.150;14.004;2022-10-31T10:50:49;21.90;;;19.40;;
3259;SDS011;22469;48.150;14.004;2022-10-31T10:56:16;19.60;;;17.57;;
3259;SDS011;22469;48.150;14.004;2022-10-31T10:58:54;20.57;;;18.47;;
3259;SDS011;22469;48.150;14.004;2022-10-31T11:01:22;22.37;;;20.10;;
3259;SDS011;22469;48.150;14.004;2022-10-31T11:03:50;23.73;;;19.27;;
3259;SDS011;22469;48.150;14.004;2022-10-31T11:06:23;21.00;;;18.90;;
3259;SDS011;22469;48.150;14.004;2022-10-31T11:08:52;22.77;;;20.40;;
3259;SDS011;22469;48.150;14.004;2022-10-31T11:11:26;21.07;;;17.87;;
3259;SDS011;22469;48.150;14.004;2022-10-31T11:13:59;21.87;;;19.57;;
3259;SDS011;22469;48.150;14.004;2022-10-31T11:16:38;20.80;;;18.37;;
3259;SDS011;22469;48.150;14.004;2022-10-31T11:19:25;22.20;;;19.90;;
3259;SDS011;22469;48.150;14.004;2022-10-31T11:21:54;25.33;;;19.73;;
3259;SDS011;22469;48.150;14.004;2022-10-31T11:24:36;22.10;;;19.67;;
3259;SDS011;22469;48.150;14.004;2022-10-31T11:27:19;23.03;;;20.60;;
3259;SDS011;22469;48.150;14.004;2022-10-31T11:29:49;27.00;;;21.53;;
3259;SDS011;22469;48.150;14.004;2022-10-31T11:32:26;24.77;;;22.13;;
3259;SDS011;22469;48.150;14.004;2022-10-31T11:34:56;26.10;;;22.67;;
3259;SDS011;22469;48.150;14.004;2022-10-31T11:37:31;24.80;;;21.87;;
3259;SDS011;22469;48.150;14.004;2022-10-31T11:40:04;28.73;;;23.33;;
3259;SDS011;22469;48.150;14.004;2022-10-31T11:42:37;25.30;;;22.60;;
3259;SDS011;22469;48.150;14.004;2022-10-31T11:45:17;26.80;;;22.80;;
3259;SDS011;22469;48.150;14.004;2022-10-31T11:47:57;23.43;;;21.03;;
3259;SDS011;22469;48.150;14.004;2022-10-31T11:50:35;26.83;;;23.93;;
3259;SDS011;22469;48.150;14.004;2022-10-31T11:53:14;28.20;;;23.50;;
3259;SDS011;22469;48.150;14.004;2022-10-31T11:56:12;24.43;;;21.57;;
3259;SDS011;22469;48.150;14.004;2022-10-31T11:58:41;28.30;;;22.70;;
3259;SDS011;22469;48.150;14.004;2022-10-31T12:01:30;25.30;;;21.73;;
3259;SDS011;22469;48.150;14.004;2022-10-31T12:04:11;26.63;;;22.60;;
3259;SDS011;22469;48.150;14.004;2022-10-31T12:06:40;25.37;;;21.70;;
3259;SDS011;22469;48.150;14.004;2022-10-31T12:09:14;25.37;;;22.77;;
3259;SDS011;22469;48.150;14.004;2022-10-31T12:15:25;25.33;;;22.60;;
3259;SDS011;22469;48.150;14.004;2022-10-31T12:26:23;28.80;;;24.03;;
3259;SDS011;22469;48.150;14.004;2022-10-31T12:32:15;30.10;;;23.97;;
3259;SDS011;22469;48.150;14.004;2022-10-31T12:45:51;30.47;;;27.27;;
3259;SDS011;22469;48.150;14.004;2022-10-31T12:59:29;29.23;;;26.10;;
3259;SDS011;22469;48.150;14.004;2022-10-31T13:04:51;35.97;;;26.07;;
3259;SDS011;22469;48.150;14.004;2022-10-31T13:07:39;32.00;;;24.67;;
3259;SDS011;22469;48.150;14.004;2022-10-31T13:13:19;36.07;;;27.93;;
3259;SDS011;22469;48.150;14.004;2022-10-31T13:15:56;31.83;;;26.20;;
3259;SDS011;22469;48.150;14.004;2022-10-31T13:18:28;31.57;;;25.37;;
3259;SDS011;22469;48.150;14.004;2022-10-31T13:21:03;36.47;;;29.03;;
3259;SDS011;22469;48.150;14.004;2022-10-31T13:23:39;36.23;;;27.60;;
3259;SDS011;22469;48.150;14.004;2022-10-31T13:26:59;32.77;;;28.60;;
3259;SDS011;22469;48.150;14.004;2022-10-31T13:29:33;36.50;;;29.03;;
3259;SDS011;22469;48.150;14.004;2022-10-31T13:32:08;34.87;;;28.37;;
3259;SDS011;22469;48.150;14.004;2022-10-31T13:34:40;38.27;;;29.33;;
3259;SDS011;22469;48.150;14.004;2022-10-31T13:43:22;39.43;;;29.50;;
3259;SDS011;22469;48.150;14.004;2022-10-31T13:45:58;36.10;;;29.20;;
3259;SDS011;22469;48.150;14.004;2022-10-31T13:51:01;39.23;;;29.47;;
3259;SDS011;22469;48.150;14.004;2022-10-31T13:56:48;37.13;;;28.23;;
3259;SDS011;22469;48.150;14.004;2022-10-31T13:59:21;38.27;;;30.93;;
3259;SDS011;22469;48.150;14.004;2022-10-31T14:01:55;40.10;;;30.20;;
3259;SDS011;22469;48.150;14.004;2022-10-31T14:04:48;38.53;;;31.40;;
3259;SDS011;22469;48.150;14.004;2022-10-31T14:07:20;40.00;;;30.30;;
3259;SDS011;22469;48.150;14.004;2022-10-31T14:09:53;40.80;;;31.10;;
3259;SDS011;22469;48.150;14.004;2022-10-31T14:15:13;36.53;;;28.80;;
3259;SDS011;22469;48.150;14.004;2022-10-31T14:17:54;36.20;;;29.07;;
3259;SDS011;22469;48.150;14.004;2022-10-31T14:20:31;36.97;;;28.13;;
3259;SDS011;22469;48.150;14.004;2022-10-31T14:28:55;48.10;;;31.13;;
3259;SDS011;22469;48.150;14.004;2022-10-31T14:31:41;40.43;;;30.20;;
3259;SDS011;22469;48.150;14.004;2022-10-31T14:34:20;41.50;;;30.40;;
3259;SDS011;22469;48.150;14.004;2022-10-31T14:51:28;48.63;;;33.63;;
3259;SDS011;22469;48.150;14.004;2022-10-31T14:54:12;42.77;;;31.57;;
3259;SDS011;22469;48.150;14.004;2022-10-31T14:57:06;46.83;;;33.57;;
3259;SDS011;22469;48.150;14.004;2022-10-31T15:00:08;52.03;;;34.10;;
3259;SDS011;22469;48.150;14.004;2022-10-31T15:05:12;46.73;;;36.67;;
3259;SDS011;22469;48.150;14.004;2022-10-31T15:07:53;46.90;;;33.53;;
3259;SDS011;22469;48.150;14.004;2022-10-31T15:10:26;43.17;;;33.17;;
3259;SDS011;22469;48.150;14.004;2022-10-31T15:15:58;51.47;;;34.23;;
3259;SDS011;22469;48.150;14.004;2022-10-31T15:18:26;47.80;;;33.10;;
3259;SDS011;22469;48.150;14.004;2022-10-31T15:20:55;48.40;;;33.93;;
3259;SDS011;22469;48.150;14.004;2022-10-31T15:23:27;50.30;;;34.77;;
3259;SDS011;22469;48.150;14.004;2022-10-31T15:26:01;81.50;;;42.67;;
3259;SDS011;22469;48.150;14.004;2022-10-31T15:28:31;48.43;;;33.87;;
3259;SDS011;22469;48.150;14.004;2022-10-31T15:30:59;51.40;;;36.60;;
3259;SDS011;22469;48.150;14.004;2022-10-31T15:33:30;50.77;;;33.73;;
3259;SDS011;22469;48.150;14.004;2022-10-31T15:36:20;57.30;;;37.97;;
3259;SDS011;22469;48.150;14.004;2022-10-31T15:38:55;52.77;;;34.87;;
3259;SDS011;22469;48.150;14.004;2022-10-31T15:41:32;49.77;;;36.50;;
3259;SDS011;22469;48.150;14.004;2022-10-31T15:44:15;53.33;;;36.50;;
3259;SDS011;22469;48.150;14.004;2022-10-31T15:46:58;53.73;;;34.60;;
3259;SDS011;22469;48.150;14.004;2022-10-31T15:49:31;48.90;;;33.37;;
3259;SDS011;22469;48.150;14.004;2022-10-31T15:52:46;52.37;;;34.90;;
3259;SDS011;22469;48.150;14.004;2022-10-31T15:57:42;72.63;;;43.27;;
3259;SDS011;22469;48.150;14.004;2022-10-31T16:00:29;69.47;;;46.30;;
3259;SDS011;22469;48.150;14.004;2022-10-31T16:03:24;60.03;;;36.43;;
3259;SDS011;22469;48.150;14.004;2022-10-31T16:05:55;63.20;;;38.93;;
3259;SDS011;22469;48.150;14.004;2022-10-31T16:10:55;90.43;;;43.17;;
3259;SDS011;22469;48.150;14.004;2022-10-31T16:13:41;89.50;;;45.87;;
3259;SDS011;22469;48.150;14.004;2022-10-31T16:16:18;94.57;;;43.53;;
3259;SDS011;22469;48.150;14.004;2022-10-31T16:19:01;95.07;;;43.30;;
3259;SDS011;22469;48.150;14.004;2022-10-31T16:21:32;76.03;;;40.77;;
3259;SDS011;22469;48.150;14.004;2022-10-31T16:24:04;81.40;;;41.57;;
3259;SDS011;22469;48.150;14.004;2022-10-31T16:27:02;63.13;;;38.57;;
3259;SDS011;22469;48.150;14.004;2022-10-31T16:32:25;90.30;;;44.33;;
3259;SDS011;22469;48.150;14.004;2022-10-31T16:38:04;101.07;;;44.67;;
3259;SDS011;22469;48.150;14.004;2022-10-31T16:40:32;105.93;;;42.73;;
3259;SDS011;22469;48.150;14.004;2022-10-31T16:43:00;155.57;;;44.47;;
3259;SDS011;22469;48.150;14.004;2022-10-31T16:45:29;104.97;;;45.10;;
3259;SDS011;22469;48.150;14.004;2022-10-31T16:48:05;121.17;;;45.40;;
3259;SDS011;22469;48.150;14.004;2022-10-31T16:50:38;108.07;;;46.50;;
3259;SDS011;22469;48.150;14.004;2022-10-31T16:53:05;115.33;;;46.03;;
3259;SDS011;22469;48.150;14.004;2022-10-31T16:56:01;134.77;;;48.47;;
3259;SDS011;22469;48.150;14.004;2022-10-31T16:58:30;81.80;;;47.47;;
3259;SDS011;22469;48.150;14.004;2022-10-31T17:01:02;116.33;;;46.57;;
3259;SDS011;22469;48.150;14.004;2022-10-31T17:03:33;89.73;;;46.40;;
3259;SDS011;22469;48.150;14.004;2022-10-31T17:06:00;114.97;;;49.10;;
3259;SDS011;22469;48.150;14.004;2022-10-31T17:08:27;103.60;;;47.80;;
3259;SDS011;22469;48.150;14.004;2022-10-31T17:10:54;92.13;;;48.70;;
3259;SDS011;22469;48.150;14.004;2022-10-31T17:13:24;106.47;;;47.73;;
3259;SDS011;22469;48.150;14.004;2022-10-31T17:15:55;79.60;;;48.17;;
3259;SDS011;22469;48.150;14.004;2022-10-31T17:18:25;96.17;;;47.53;;
3259;SDS011;22469;48.150;14.004;2022-10-31T17:20:57;114.97;;;51.10;;
3259;SDS011;22469;48.150;14.004;2022-10-31T17:23:27;119.30;;;53.00;;
3259;SDS011;22469;48.150;14.004;2022-10-31T17:25:55;113.17;;;52.57;;
3259;SDS011;22469;48.150;14.004;2022-10-31T17:28:23;108.23;;;48.43;;
3259;SDS011;22469;48.150;14.004;2022-10-31T17:30:53;127.37;;;52.57;;
3259;SDS011;22469;48.150;14.004;2022-10-31T17:33:21;152.87;;;52.83;;
3259;SDS011;22469;48.150;14.004;2022-10-31T17:35:48;126.83;;;53.43;;
3259;SDS011;22469;48.150;14.004;2022-10-31T17:38:15;101.10;;;48.17;;
3259;SDS011;22469;48.150;14.004;2022-10-31T17:40:42;125.67;;;52.17;;
3259;SDS011;22469;48.150;14.004;2022-10-31T17:43:10;362.83;;;173.60;;